EZY58B EHRD-EBOS
Flight info
| Callsign | EZY58B |
|---|---|
| Flight time | 0h 27m |
| Altitude | 11000 |
| Route | WOODY N872 DENOX/N0305F120 L607 KOK |
| Aircraft | A20N/M-SDE2E3FGHIRWXY/LB1 |
Departure
| Time | 2026-05-05 13:03 |
|---|---|
| Airport | Rotterdam The Hague Airport (EHRD) |
Arrival
| Time | 2026-05-05 13:31 |
|---|---|
| Airport | Ostend-Bruges International Airport (EBOS) |
| Time | Latitude | Longitude | Altitude | Speed | Heading |
|---|---|---|---|---|---|
| 2026-05-05 12:48 | 51.95039 | 4.43562 | -6 ft | 0 kts | 328° |
| 2026-05-05 13:00 | 51.95052 | 4.43551 | -6 ft | 6 kts | 329° |
| 2026-05-05 13:00 | 51.95099 | 4.43567 | -6 ft | 8 kts | 13° |
| 2026-05-05 13:01 | 51.95229 | 4.43375 | -6 ft | 9 kts | 243° |
| 2026-05-05 13:01 | 51.95190 | 4.43274 | -6 ft | 12 kts | 234° |
| 2026-05-05 13:01 | 51.95143 | 4.43159 | -6 ft | 13 kts | 241° |
| 2026-05-05 13:01 | 51.95108 | 4.43023 | -6 ft | 10 kts | 258° |
| 2026-05-05 13:02 | 51.95107 | 4.43016 | -6 ft | 0 kts | 261° |
| 2026-05-05 13:02 | 51.95107 | 4.43007 | -6 ft | 6 kts | 265° |
| 2026-05-05 13:02 | 51.95157 | 4.42884 | -5 ft | 17 kts | 323° |
| 2026-05-05 13:03 | 51.95281 | 4.42991 | -5 ft | 46 kts | 53° |
| 2026-05-05 13:03 | 51.95569 | 4.43701 | -5 ft | 106 kts | 56° |
| 2026-05-05 13:03 | 51.96057 | 4.44904 | 178 ft | 134 kts | 56° |
| 2026-05-05 13:03 | 51.96547 | 4.46131 | 937 ft | 131 kts | 54° |
| 2026-05-05 13:04 | 51.97069 | 4.47374 | 1511 ft | 138 kts | 54° |
| 2026-05-05 13:04 | 51.97592 | 4.48738 | 2098 ft | 150 kts | 57° |
| 2026-05-05 13:04 | 51.98135 | 4.50303 | 2519 ft | 169 kts | 60° |
| 2026-05-05 13:04 | 51.98708 | 4.52120 | 2920 ft | 196 kts | 62° |
| 2026-05-05 13:05 | 51.99344 | 4.54229 | 2985 ft | 220 kts | 63° |
| 2026-05-05 13:05 | 51.99993 | 4.56555 | 2997 ft | 227 kts | 72° |
| 2026-05-05 13:05 | 52.00137 | 4.59219 | 3003 ft | 252 kts | 97° |
| 2026-05-05 13:05 | 51.99480 | 4.61850 | 3005 ft | 255 kts | 124° |
| 2026-05-05 13:06 | 51.98121 | 4.63713 | 3007 ft | 261 kts | 150° |
| 2026-05-05 13:06 | 51.96476 | 4.65028 | 3199 ft | 265 kts | 151° |
| 2026-05-05 13:06 | 51.94785 | 4.66273 | 3877 ft | 270 kts | 162° |
| 2026-05-05 13:06 | 51.92924 | 4.66442 | 4985 ft | 272 kts | 190° |
| 2026-05-05 13:07 | 51.91197 | 4.65237 | 5992 ft | 273 kts | 217° |
| 2026-05-05 13:07 | 51.89906 | 4.63004 | 6544 ft | 274 kts | 233° |
| 2026-05-05 13:07 | 51.88849 | 4.60423 | 6788 ft | 276 kts | 238° |
| 2026-05-05 13:07 | 51.87822 | 4.57795 | 6887 ft | 276 kts | 232° |
| 2026-05-05 13:08 | 51.86414 | 4.55719 | 6911 ft | 276 kts | 209° |
| 2026-05-05 13:08 | 51.84618 | 4.54647 | 6915 ft | 276 kts | 194° |
| 2026-05-05 13:08 | 51.82757 | 4.53881 | 6911 ft | 276 kts | 194° |
| 2026-05-05 13:08 | 51.80897 | 4.53124 | 6915 ft | 276 kts | 194° |
| 2026-05-05 13:09 | 51.79042 | 4.52346 | 6914 ft | 276 kts | 198° |
| 2026-05-05 13:09 | 51.77408 | 4.50754 | 6917 ft | 277 kts | 225° |
| 2026-05-05 13:09 | 51.76316 | 4.48252 | 6916 ft | 278 kts | 239° |
| 2026-05-05 13:09 | 51.75351 | 4.45533 | 7160 ft | 281 kts | 240° |
| 2026-05-05 13:10 | 51.74391 | 4.42780 | 7961 ft | 282 kts | 240° |
| 2026-05-05 13:10 | 51.73422 | 4.40024 | 8975 ft | 285 kts | 240° |
| 2026-05-05 13:10 | 51.72423 | 4.37216 | 9579 ft | 291 kts | 240° |
| 2026-05-05 13:10 | 51.71406 | 4.34381 | 9806 ft | 292 kts | 240° |
| 2026-05-05 13:11 | 51.70382 | 4.31544 | 9903 ft | 293 kts | 240° |
| 2026-05-05 13:11 | 51.69353 | 4.28701 | 9912 ft | 293 kts | 240° |
| 2026-05-05 13:11 | 51.68325 | 4.25864 | 9911 ft | 293 kts | 240° |
| 2026-05-05 13:11 | 51.67251 | 4.22903 | 9913 ft | 323 kts | 240° |
| 2026-05-05 13:12 | 51.66081 | 4.19681 | 9909 ft | 338 kts | 240° |
| 2026-05-05 13:12 | 51.64904 | 4.16444 | 9909 ft | 328 kts | 240° |
| 2026-05-05 13:12 | 51.63781 | 4.13357 | 9911 ft | 311 kts | 240° |
| 2026-05-05 13:12 | 51.62715 | 4.10434 | 9912 ft | 294 kts | 240° |
| 2026-05-05 13:13 | 51.61693 | 4.07632 | 9916 ft | 292 kts | 240° |
| 2026-05-05 13:13 | 51.60617 | 4.04684 | 9917 ft | 323 kts | 239° |
| 2026-05-05 13:13 | 51.59440 | 4.01464 | 10348 ft | 340 kts | 239° |
| 2026-05-05 13:13 | 51.58234 | 3.98168 | 10728 ft | 343 kts | 239° |
| 2026-05-05 13:14 | 51.57028 | 3.94850 | 10878 ft | 344 kts | 242° |
| 2026-05-05 13:14 | 51.56023 | 3.91361 | 10914 ft | 345 kts | 246° |
| 2026-05-05 13:14 | 51.55060 | 3.87828 | 10918 ft | 345 kts | 246° |
| 2026-05-05 13:14 | 51.54104 | 3.84294 | 10915 ft | 345 kts | 246° |
| 2026-05-05 13:15 | 51.53146 | 3.80758 | 10921 ft | 345 kts | 246° |
| 2026-05-05 13:15 | 51.52185 | 3.77232 | 10925 ft | 345 kts | 246° |
| 2026-05-05 13:15 | 51.51220 | 3.73703 | 10923 ft | 345 kts | 246° |
| 2026-05-05 13:15 | 51.50267 | 3.70226 | 10921 ft | 345 kts | 246° |
| 2026-05-05 13:16 | 51.49297 | 3.66699 | 10923 ft | 345 kts | 246° |
| 2026-05-05 13:16 | 51.48315 | 3.63134 | 10921 ft | 345 kts | 246° |
| 2026-05-05 13:16 | 51.47357 | 3.59661 | 10921 ft | 345 kts | 246° |
| 2026-05-05 13:16 | 51.46385 | 3.56148 | 10924 ft | 345 kts | 246° |
| 2026-05-05 13:17 | 51.45412 | 3.52632 | 10924 ft | 345 kts | 246° |
| 2026-05-05 13:17 | 51.44440 | 3.49122 | 10923 ft | 345 kts | 246° |
| 2026-05-05 13:17 | 51.43465 | 3.45609 | 10924 ft | 345 kts | 246° |
| 2026-05-05 13:17 | 51.42489 | 3.42097 | 10926 ft | 345 kts | 246° |
| 2026-05-05 13:18 | 51.41512 | 3.38587 | 10925 ft | 345 kts | 246° |
| 2026-05-05 13:18 | 51.40534 | 3.35079 | 10925 ft | 345 kts | 246° |
| 2026-05-05 13:18 | 51.39554 | 3.31570 | 10929 ft | 345 kts | 246° |
| 2026-05-05 13:18 | 51.38571 | 3.28054 | 10823 ft | 347 kts | 246° |
| 2026-05-05 13:19 | 51.37585 | 3.24535 | 10460 ft | 347 kts | 246° |
| 2026-05-05 13:19 | 51.36605 | 3.21045 | 10237 ft | 338 kts | 246° |
| 2026-05-05 13:19 | 51.35660 | 3.17684 | 10108 ft | 325 kts | 246° |
| 2026-05-05 13:19 | 51.34752 | 3.14458 | 9988 ft | 311 kts | 246° |
| 2026-05-05 13:20 | 51.33882 | 3.11368 | 9818 ft | 300 kts | 246° |
| 2026-05-05 13:20 | 51.33030 | 3.08349 | 9433 ft | 297 kts | 246° |
| 2026-05-05 13:20 | 51.32184 | 3.05348 | 9011 ft | 295 kts | 246° |
| 2026-05-05 13:20 | 51.31346 | 3.02382 | 8667 ft | 291 kts | 246° |
| 2026-05-05 13:21 | 51.30519 | 2.99458 | 8317 ft | 287 kts | 247° |
| 2026-05-05 13:21 | 51.29867 | 2.96476 | 7965 ft | 283 kts | 258° |
| 2026-05-05 13:21 | 51.29427 | 2.93432 | 7613 ft | 280 kts | 258° |
| 2026-05-05 13:21 | 51.28988 | 2.90420 | 7263 ft | 277 kts | 258° |
| 2026-05-05 13:22 | 51.28547 | 2.87435 | 6914 ft | 275 kts | 258° |
| 2026-05-05 13:22 | 51.28108 | 2.84481 | 6574 ft | 272 kts | 258° |
| 2026-05-05 13:22 | 51.27675 | 2.81586 | 6224 ft | 270 kts | 258° |
| 2026-05-05 13:22 | 51.27233 | 2.78641 | 5870 ft | 268 kts | 258° |
| 2026-05-05 13:23 | 51.26800 | 2.75763 | 5539 ft | 265 kts | 258° |
| 2026-05-05 13:23 | 51.26376 | 2.72945 | 5202 ft | 264 kts | 258° |
| 2026-05-05 13:23 | 51.25950 | 2.70126 | 4939 ft | 259 kts | 259° |
| 2026-05-05 13:23 | 51.25528 | 2.67345 | 4634 ft | 257 kts | 259° |
| 2026-05-05 13:24 | 51.25110 | 2.64581 | 4288 ft | 256 kts | 259° |
| 2026-05-05 13:24 | 51.24696 | 2.61831 | 3967 ft | 254 kts | 259° |
| 2026-05-05 13:24 | 51.24264 | 2.58997 | 3648 ft | 275 kts | 256° |
| 2026-05-05 13:24 | 51.23323 | 2.56201 | 3405 ft | 301 kts | 229° |
| 2026-05-05 13:25 | 51.21655 | 2.54226 | 3367 ft | 298 kts | 202° |
| 2026-05-05 13:25 | 51.19681 | 2.53572 | 3267 ft | 283 kts | 175° |
| 2026-05-05 13:25 | 51.17876 | 2.54303 | 3108 ft | 257 kts | 146° |
| 2026-05-05 13:25 | 51.16649 | 2.56113 | 2942 ft | 229 kts | 116° |
| 2026-05-05 13:26 | 51.16088 | 2.58365 | 2837 ft | 212 kts | 97° |
| 2026-05-05 13:26 | 51.15981 | 2.60646 | 2667 ft | 200 kts | 83° |
| 2026-05-05 13:26 | 51.16134 | 2.62745 | 2631 ft | 181 kts | 76° |
| 2026-05-05 13:26 | 51.16385 | 2.64612 | 2513 ft | 163 kts | 72° |
| 2026-05-05 13:27 | 51.16649 | 2.66283 | 2414 ft | 148 kts | 72° |
| 2026-05-05 13:27 | 51.16885 | 2.67805 | 2306 ft | 135 kts | 72° |
| 2026-05-05 13:27 | 51.17107 | 2.69213 | 2173 ft | 128 kts | 72° |
| 2026-05-05 13:27 | 51.17318 | 2.70559 | 2014 ft | 125 kts | 72° |
| 2026-05-05 13:28 | 51.17529 | 2.71904 | 1839 ft | 124 kts | 71° |
| 2026-05-05 13:28 | 51.17737 | 2.73231 | 1683 ft | 123 kts | 70° |
| 2026-05-05 13:28 | 51.17875 | 2.74113 | 1552 ft | 124 kts | 70° |
| 2026-05-05 13:28 | 51.18155 | 2.75897 | 1335 ft | 127 kts | 71° |
| 2026-05-05 13:29 | 51.18366 | 2.77246 | 1150 ft | 122 kts | 71° |
| 2026-05-05 13:29 | 51.18570 | 2.78550 | 964 ft | 122 kts | 70° |
| 2026-05-05 13:29 | 51.18779 | 2.79880 | 789 ft | 126 kts | 70° |
| 2026-05-05 13:29 | 51.18995 | 2.81257 | 624 ft | 127 kts | 70° |
| 2026-05-05 13:30 | 51.19135 | 2.82155 | 502 ft | 126 kts | 70° |
| 2026-05-05 13:30 | 51.19345 | 2.83504 | 327 ft | 121 kts | 71° |
| 2026-05-05 13:30 | 51.19547 | 2.84782 | 178 ft | 122 kts | 70° |
| 2026-05-05 13:30 | 51.19770 | 2.86074 | 27 ft | 118 kts | 70° |
| 2026-05-05 13:31 | 51.19941 | 2.87145 | 19 ft | 72 kts | 76° |
| 2026-05-05 13:31 | 51.20089 | 2.87520 | 16 ft | 11 kts | 31° |
| 2026-05-05 13:31 | 51.20127 | 2.87552 | 16 ft | 9 kts | 27° |
| 2026-05-05 13:31 | 51.20191 | 2.87582 | 16 ft | 11 kts | 358° |
| 2026-05-05 13:32 | 51.20269 | 2.87560 | 16 ft | 12 kts | 343° |
| 2026-05-05 13:32 | 51.20326 | 2.87488 | 16 ft | 9 kts | 262° |
| 2026-05-05 13:32 | 51.20308 | 2.87379 | 17 ft | 11 kts | 253° |
| 2026-05-05 13:32 | 51.20283 | 2.87251 | 18 ft | 13 kts | 255° |
| 2026-05-05 13:33 | 51.20265 | 2.87101 | 16 ft | 10 kts | 260° |
| 2026-05-05 13:33 | 51.20261 | 2.87062 | 16 ft | 0 kts | 261° |
| 2026-05-05 13:33 | 51.20259 | 2.87044 | 16 ft | 3 kts | 262° |
| 2026-05-05 13:34 | 51.20254 | 2.86995 | 16 ft | 6 kts | 261° |
| 2026-05-05 13:34 | 51.20251 | 2.86948 | 16 ft | 1 kts | 270° |
| 2026-05-05 13:34 | 51.20267 | 2.86915 | 16 ft | 6 kts | 323° |
| 2026-05-05 13:34 | 51.20320 | 2.86893 | 17 ft | 9 kts | 348° |
| 2026-05-05 13:35 | 51.20331 | 2.86890 | 18 ft | 0 kts | 347° |